createdAt,value
2022-12-18T00:01:24.105Z,16.37
2022-12-18T00:03:52.964Z,15.67
2022-12-18T00:06:20.560Z,14.90
2022-12-18T00:08:47.217Z,14.97
2022-12-18T00:11:20.745Z,15.47
2022-12-18T00:13:47.941Z,15.97
2022-12-18T00:16:20.576Z,15.60
2022-12-18T00:18:52.170Z,15.43
2022-12-18T00:21:19.867Z,16.40
2022-12-18T00:23:48.523Z,15.57
2022-12-18T00:26:22.098Z,15.30
2022-12-18T00:28:50.296Z,15.67
2022-12-18T00:31:21.084Z,15.80
2022-12-18T00:33:47.992Z,15.47
2022-12-18T00:36:22.821Z,15.10
2022-12-18T00:38:50.926Z,15.67
2022-12-18T00:41:38.731Z,15.20
2022-12-18T00:44:07.817Z,15.67
2022-12-18T00:46:34.258Z,16.47
2022-12-18T00:49:00.452Z,16.20
2022-12-18T00:51:27.202Z,16.40
2022-12-18T00:53:54.047Z,16.87
2022-12-18T00:56:23.569Z,16.23
2022-12-18T00:58:49.919Z,16.80
2022-12-18T01:01:17.204Z,16.63
2022-12-18T01:03:45.329Z,16.23
2022-12-18T01:06:14.516Z,16.53
2022-12-18T01:08:40.837Z,16.10
2022-12-18T01:11:17.305Z,17.00
2022-12-18T01:13:44.142Z,15.23
2022-12-18T01:16:17.388Z,16.70
2022-12-18T01:18:43.544Z,15.70
2022-12-18T01:21:13.588Z,16.10
2022-12-18T01:23:40.376Z,16.93
2022-12-18T01:26:13.599Z,16.03
2022-12-18T01:28:40.998Z,17.20
2022-12-18T01:31:27.305Z,15.73
2022-12-18T01:33:56.148Z,15.87
2022-12-18T01:36:29.227Z,16.30
2022-12-18T01:38:56.127Z,16.77
2022-12-18T01:41:47.640Z,16.77
2022-12-18T01:45:23.028Z,17.00
2022-12-18T01:48:03.587Z,16.10
2022-12-18T01:50:40.180Z,16.80
2022-12-18T01:53:20.955Z,15.73
2022-12-18T01:55:54.978Z,17.80
2022-12-18T01:58:50.050Z,17.20
2022-12-18T02:01:16.907Z,16.67
2022-12-18T02:03:44.482Z,16.70
2022-12-18T02:06:19.782Z,16.50
2022-12-18T02:09:12.659Z,16.30
2022-12-18T02:12:03.659Z,16.27
2022-12-18T02:14:43.172Z,17.07
2022-12-18T02:17:21.150Z,17.63
2022-12-18T02:20:24.644Z,16.87
2022-12-18T02:22:59.975Z,16.53
2022-12-18T02:26:42.350Z,17.17
2022-12-18T02:29:34.525Z,16.93
2022-12-18T02:32:07.604Z,17.30
2022-12-18T02:34:40.240Z,17.90
2022-12-18T02:37:16.358Z,16.60
2022-12-18T02:39:46.297Z,16.70
2022-12-18T02:42:14.123Z,17.80
2022-12-18T02:44:50.241Z,16.77
2022-12-18T02:47:24.344Z,18.27
2022-12-18T02:50:21.455Z,17.07
2022-12-18T02:53:26.518Z,17.50
2022-12-18T02:56:22.534Z,18.50
2022-12-18T02:59:04.997Z,16.97
2022-12-18T03:01:54.957Z,17.63
2022-12-18T03:04:36.009Z,18.30
2022-12-18T03:07:14.798Z,18.53
2022-12-18T03:09:49.493Z,18.70
2022-12-18T03:12:31.522Z,19.07
2022-12-18T03:15:18.168Z,17.67
2022-12-18T03:17:58.042Z,19.67
2022-12-18T03:20:30.582Z,19.00
2022-12-18T03:23:09.575Z,18.67
2022-12-18T03:25:42.865Z,18.30
2022-12-18T03:28:16.162Z,19.00
2022-12-18T03:30:47.082Z,18.80
2022-12-18T03:33:24.358Z,18.13
2022-12-18T03:35:51.885Z,17.00
2022-12-18T03:38:18.953Z,17.30
2022-12-18T03:41:07.788Z,17.27
2022-12-18T03:44:15.093Z,17.27
2022-12-18T03:46:55.043Z,17.20
2022-12-18T03:50:06.065Z,17.33
2022-12-18T03:53:00.355Z,17.83
2022-12-18T03:55:33.837Z,17.70
2022-12-18T03:58:06.117Z,17.60
2022-12-18T04:00:44.326Z,18.33
2022-12-18T04:03:13.845Z,18.43
2022-12-18T04:05:48.109Z,17.10
2022-12-18T04:08:15.367Z,17.33
2022-12-18T04:10:49.007Z,16.77
2022-12-18T04:13:34.218Z,17.93
2022-12-18T04:16:02.569Z,17.30
2022-12-18T04:18:28.839Z,18.23
2022-12-18T04:20:55.354Z,16.80
2022-12-18T04:23:22.521Z,17.20
2022-12-18T04:25:49.328Z,17.10
2022-12-18T04:28:22.955Z,16.60
2022-12-18T04:30:49.831Z,18.37
2022-12-18T04:33:16.622Z,16.43
2022-12-18T04:35:43.039Z,16.70
2022-12-18T04:38:10.090Z,17.83
2022-12-18T04:40:37.758Z,16.77
2022-12-18T04:43:09.489Z,18.07
2022-12-18T04:45:35.782Z,17.43
2022-12-18T04:48:03.465Z,16.43
2022-12-18T04:50:30.203Z,17.47
2022-12-18T04:52:57.086Z,18.30
2022-12-18T04:55:23.332Z,16.27
2022-12-18T04:57:49.673Z,17.73
2022-12-18T05:00:16.138Z,17.70
2022-12-18T05:02:42.519Z,17.83
2022-12-18T05:05:09.859Z,18.10
2022-12-18T05:07:36.182Z,17.60
2022-12-18T05:10:03.333Z,17.37
2022-12-18T05:12:31.306Z,17.03
2022-12-18T05:14:57.417Z,18.37
2022-12-18T05:17:23.515Z,18.50
2022-12-18T05:19:49.668Z,18.10
2022-12-18T05:22:15.775Z,17.47
2022-12-18T05:24:41.906Z,18.43
2022-12-18T05:27:08.014Z,18.30
2022-12-18T05:29:34.124Z,17.13
2022-12-18T05:32:00.234Z,17.47
2022-12-18T05:34:26.413Z,17.27
2022-12-18T05:36:52.520Z,17.80
2022-12-18T05:39:18.629Z,17.93
2022-12-18T05:41:44.728Z,17.57
2022-12-18T05:44:10.825Z,17.03
2022-12-18T05:46:37.008Z,17.67
2022-12-18T05:49:03.297Z,17.77
2022-12-18T05:51:29.389Z,17.40
2022-12-18T05:53:55.657Z,16.63
2022-12-18T05:56:23.214Z,17.67
2022-12-18T05:58:53.896Z,17.03
2022-12-18T06:01:25.217Z,17.47
2022-12-18T06:03:51.573Z,17.57
2022-12-18T06:06:19.898Z,16.63
2022-12-18T06:08:47.049Z,17.00
2022-12-18T06:11:16.498Z,17.27
2022-12-18T06:13:42.783Z,16.37
2022-12-18T06:16:09.195Z,17.10
2022-12-18T06:18:38.465Z,16.97
2022-12-18T06:21:04.738Z,16.53
2022-12-18T06:23:30.828Z,16.77
2022-12-18T06:25:56.960Z,16.53
2022-12-18T06:28:23.065Z,16.60
2022-12-18T06:30:49.914Z,16.83
2022-12-18T06:33:17.167Z,16.23
2022-12-18T06:35:43.321Z,15.30
2022-12-18T06:38:09.434Z,15.10
2022-12-18T06:40:39.390Z,14.83
2022-12-18T06:43:06.339Z,14.80
2022-12-18T06:45:32.485Z,15.07
2022-12-18T06:47:58.609Z,14.33
2022-12-18T06:50:25.441Z,14.33
2022-12-18T06:52:51.600Z,14.13
2022-12-18T06:55:18.143Z,14.53
2022-12-18T06:57:44.267Z,13.83
2022-12-18T07:00:11.091Z,13.80
2022-12-18T07:02:37.322Z,13.67
2022-12-18T07:05:10.246Z,12.83
2022-12-18T07:07:37.058Z,12.47
2022-12-18T07:10:03.740Z,12.90
2022-12-18T07:12:29.947Z,12.27
2022-12-18T07:14:56.108Z,12.40
2022-12-18T07:17:22.209Z,12.20
2022-12-18T07:19:48.303Z,12.90
2022-12-18T07:22:14.434Z,12.50
2022-12-18T07:24:40.597Z,12.77
2022-12-18T07:27:06.720Z,12.17
2022-12-18T07:29:34.195Z,13.27
2022-12-18T07:32:00.391Z,12.40
2022-12-18T07:34:26.554Z,12.57
2022-12-18T07:36:52.671Z,13.03
2022-12-18T07:39:18.788Z,14.20
2022-12-18T07:42:04.817Z,13.97
2022-12-18T07:44:32.638Z,14.93
2022-12-18T07:46:58.759Z,13.73
2022-12-18T07:49:24.854Z,13.57
2022-12-18T07:51:50.993Z,13.90
2022-12-18T07:54:17.122Z,14.30
2022-12-18T07:56:43.236Z,13.67
2022-12-18T07:59:09.414Z,12.80
2022-12-18T08:01:36.025Z,13.00
2022-12-18T08:04:02.261Z,12.53
2022-12-18T08:06:28.353Z,12.53
2022-12-18T08:08:56.123Z,12.47
2022-12-18T08:11:25.432Z,13.67
2022-12-18T08:13:52.052Z,12.43
2022-12-18T08:16:19.544Z,12.27
2022-12-18T08:18:46.360Z,12.43
2022-12-18T08:21:17.046Z,12.97
2022-12-18T08:23:43.844Z,12.50
2022-12-18T08:26:11.889Z,12.77
2022-12-18T08:28:38.456Z,13.03
2022-12-18T08:31:05.126Z,13.17
2022-12-18T08:33:31.693Z,13.67
2022-12-18T08:36:00.146Z,13.20
2022-12-18T08:38:26.686Z,12.00
2022-12-18T08:41:07.080Z,12.83
2022-12-18T08:43:52.040Z,13.10
2022-12-18T08:46:20.681Z,12.43
2022-12-18T08:48:47.278Z,13.50
2022-12-18T08:51:15.761Z,13.97
2022-12-18T08:53:42.773Z,14.17
2022-12-18T08:56:09.138Z,13.93
2022-12-18T08:58:35.252Z,14.00
2022-12-18T09:01:03.479Z,13.70
2022-12-18T09:03:29.816Z,15.03
2022-12-18T09:05:56.027Z,13.70
2022-12-18T09:08:22.145Z,13.57
2022-12-18T09:10:50.419Z,14.47
2022-12-18T09:13:17.847Z,17.83
2022-12-18T09:15:55.439Z,15.40
2022-12-18T09:18:23.777Z,14.17
2022-12-18T09:20:51.988Z,14.07
2022-12-18T09:23:18.353Z,13.07
2022-12-18T09:25:44.809Z,13.53
2022-12-18T09:28:17.547Z,14.03
2022-12-18T09:30:49.389Z,14.30
2022-12-18T09:33:17.020Z,13.13
2022-12-18T09:35:45.934Z,13.47
2022-12-18T09:38:16.261Z,14.70
2022-12-18T09:41:16.123Z,14.13
2022-12-18T09:43:55.654Z,13.37
2022-12-18T09:46:33.133Z,12.53
2022-12-18T09:49:06.380Z,11.90
2022-12-18T09:51:42.767Z,12.27
2022-12-18T09:54:29.614Z,12.73
2022-12-18T09:56:55.730Z,13.57
2022-12-18T09:59:30.868Z,14.13
2022-12-18T10:01:57.431Z,16.77
2022-12-18T10:04:24.775Z,18.63
2022-12-18T10:07:09.824Z,20.80
2022-12-18T10:10:04.639Z,19.40
2022-12-18T10:12:49.187Z,18.23
2022-12-18T10:16:17.878Z,19.17
2022-12-18T10:19:13.184Z,17.43
2022-12-18T10:22:11.323Z,15.60
2022-12-18T10:24:54.824Z,18.10
2022-12-18T10:27:27.025Z,17.17
2022-12-18T10:29:54.507Z,14.07
2022-12-18T10:32:28.677Z,13.30
2022-12-18T10:35:00.495Z,13.70
2022-12-18T10:37:30.055Z,14.37
2022-12-18T10:40:21.857Z,13.00
2022-12-18T10:43:12.753Z,12.20
2022-12-18T10:45:39.667Z,11.77
2022-12-18T10:48:19.782Z,12.53
2022-12-18T10:53:37.781Z,11.83
2022-12-18T10:56:06.640Z,13.97
2022-12-18T10:58:36.831Z,12.97
2022-12-18T11:01:16.001Z,12.00
2022-12-18T11:04:02.487Z,12.83
2022-12-18T11:06:33.169Z,12.30
2022-12-18T11:09:08.008Z,12.60
2022-12-18T11:11:38.847Z,13.80
2022-12-18T11:14:18.191Z,12.10
2022-12-18T11:17:23.881Z,12.00
2022-12-18T11:19:38.999Z,12.27
2022-12-18T11:22:23.226Z,11.67
2022-12-18T11:28:25.665Z,11.73
2022-12-18T11:31:24.002Z,10.90
2022-12-18T11:34:28.093Z,11.60
2022-12-18T11:36:48.164Z,11.17
2022-12-18T11:39:38.796Z,12.93
2022-12-18T11:42:37.760Z,10.90
2022-12-18T11:45:15.526Z,12.03
2022-12-18T11:48:09.287Z,11.57
2022-12-18T11:50:36.785Z,13.47
2022-12-18T11:53:06.177Z,11.90
2022-12-18T11:55:50.812Z,11.10
2022-12-18T11:58:53.943Z,11.93
2022-12-18T12:01:55.423Z,12.63
2022-12-18T12:04:58.888Z,11.83
2022-12-18T12:07:36.749Z,11.87
2022-12-18T12:10:23.801Z,12.23
2022-12-18T12:13:23.975Z,11.93
2022-12-18T12:16:04.035Z,11.17
2022-12-18T12:18:53.444Z,12.07
2022-12-18T12:21:28.817Z,11.40
2022-12-18T12:24:11.677Z,13.83
2022-12-18T12:27:15.307Z,12.80
2022-12-18T12:30:20.750Z,11.90
2022-12-18T12:33:13.412Z,12.60
2022-12-18T12:36:22.962Z,11.77
2022-12-18T12:38:58.418Z,12.80
2022-12-18T12:41:49.759Z,12.47
2022-12-18T12:44:25.572Z,14.00
2022-12-18T12:46:55.309Z,12.30
2022-12-18T12:49:27.890Z,12.97
2022-12-18T12:52:11.057Z,12.50
2022-12-18T12:54:38.938Z,13.00
2022-12-18T12:57:33.868Z,12.77
2022-12-18T13:00:13.163Z,13.23
2022-12-18T13:03:12.670Z,13.17
2022-12-18T13:05:51.591Z,13.00
2022-12-18T13:08:28.789Z,12.90
2022-12-18T13:11:19.718Z,13.40
2022-12-18T13:13:56.264Z,13.33
2022-12-18T13:16:27.739Z,17.27
2022-12-18T13:18:58.044Z,14.43
2022-12-18T13:21:32.586Z,14.53
2022-12-18T13:24:35.563Z,14.40
2022-12-18T13:27:40.371Z,15.10
2022-12-18T13:30:31.622Z,14.23
2022-12-18T13:33:18.734Z,15.20
2022-12-18T13:36:09.764Z,13.87
2022-12-18T13:38:39.335Z,14.57
2022-12-18T13:41:28.422Z,14.20
2022-12-18T13:43:59.387Z,14.97
2022-12-18T13:46:47.822Z,14.80
2022-12-18T13:49:13.825Z,14.57
2022-12-18T13:51:47.903Z,15.77
2022-12-18T13:54:39.244Z,15.17
2022-12-18T13:57:26.387Z,14.93
2022-12-18T13:59:52.603Z,15.13
2022-12-18T14:02:24.675Z,16.93
2022-12-18T14:04:52.246Z,16.70
2022-12-18T14:07:31.392Z,16.33
2022-12-18T14:10:45.150Z,15.03
2022-12-18T14:13:10.402Z,15.73
2022-12-18T14:15:43.899Z,17.47
2022-12-18T14:18:25.674Z,15.27
2022-12-18T14:20:56.866Z,16.03
2022-12-18T14:23:40.240Z,16.50
2022-12-18T14:26:30.106Z,18.07
2022-12-18T14:29:03.843Z,17.07
2022-12-18T14:31:31.984Z,17.03
2022-12-18T14:33:58.354Z,17.37
2022-12-18T14:36:27.871Z,17.33
2022-12-18T14:38:59.287Z,17.37
2022-12-18T14:41:27.938Z,17.10
2022-12-18T14:43:54.845Z,17.03
2022-12-18T14:46:35.365Z,17.47
2022-12-18T14:49:29.481Z,17.13
2022-12-18T14:52:01.442Z,17.97
2022-12-18T14:54:30.459Z,19.63
2022-12-18T14:57:27.021Z,18.10
2022-12-18T14:59:53.305Z,16.63
2022-12-18T15:02:28.278Z,19.70
2022-12-18T15:05:18.387Z,18.57
2022-12-18T15:07:51.371Z,19.13
2022-12-18T15:10:31.148Z,20.13
2022-12-18T15:12:57.157Z,19.33
2022-12-18T15:15:39.463Z,19.53
2022-12-18T15:18:08.602Z,18.00
2022-12-18T15:20:48.732Z,18.43
2022-12-18T15:23:35.480Z,18.53
2022-12-18T15:26:09.891Z,18.20
2022-12-18T15:28:50.677Z,18.47
2022-12-18T15:31:18.021Z,18.50
2022-12-18T15:34:00.897Z,18.33
2022-12-18T15:36:27.197Z,19.90
2022-12-18T15:38:56.046Z,19.07
2022-12-18T15:41:33.965Z,19.57
2022-12-18T15:44:02.885Z,19.00
2022-12-18T15:46:30.945Z,19.23
2022-12-18T15:49:02.235Z,19.47
2022-12-18T15:51:37.191Z,20.03
2022-12-18T15:54:11.381Z,18.40
2022-12-18T15:56:56.029Z,19.03
2022-12-18T15:59:23.476Z,19.30
2022-12-18T16:01:53.409Z,19.87
2022-12-18T16:04:22.139Z,20.97
2022-12-18T16:09:36.386Z,19.27
2022-12-18T16:12:02.896Z,19.33
2022-12-18T16:14:30.771Z,20.50
2022-12-18T16:17:03.679Z,20.07
2022-12-18T16:19:30.230Z,21.13
2022-12-18T16:21:58.986Z,19.90
2022-12-18T16:24:29.314Z,21.47
2022-12-18T16:26:59.472Z,20.60
2022-12-18T16:29:28.338Z,21.17
2022-12-18T16:31:59.410Z,19.27
2022-12-18T16:34:35.827Z,20.50
2022-12-18T16:37:07.788Z,20.77
2022-12-18T16:39:35.900Z,20.13
2022-12-18T16:42:16.277Z,20.73
2022-12-18T16:44:43.843Z,20.13
2022-12-18T16:47:11.097Z,21.10
2022-12-18T16:49:41.078Z,23.87
2022-12-18T16:52:07.668Z,22.00
2022-12-18T16:54:35.738Z,21.43
2022-12-18T16:57:04.404Z,22.20
2022-12-18T16:59:31.101Z,21.00
2022-12-18T17:01:58.358Z,19.93
2022-12-18T17:04:24.594Z,21.07
2022-12-18T17:06:53.298Z,22.00
2022-12-18T17:09:27.591Z,21.17
2022-12-18T17:11:54.376Z,20.90
2022-12-18T17:14:24.131Z,21.40
2022-12-18T17:17:13.649Z,21.93
2022-12-18T17:19:37.845Z,23.40
2022-12-18T17:22:04.224Z,22.77
2022-12-18T17:24:34.840Z,22.77
2022-12-18T17:27:02.186Z,22.43
2022-12-18T17:29:28.289Z,23.47
2022-12-18T17:31:54.379Z,23.90
2022-12-18T17:34:21.354Z,23.30
2022-12-18T17:36:47.465Z,23.17
2022-12-18T17:39:19.608Z,22.13
2022-12-18T17:41:46.826Z,23.57
2022-12-18T17:44:12.958Z,25.20
2022-12-18T17:46:40.551Z,23.37
2022-12-18T17:49:06.703Z,21.17
2022-12-18T17:51:33.159Z,23.30
2022-12-18T17:53:59.630Z,22.90
2022-12-18T17:56:26.084Z,21.87
2022-12-18T17:58:52.732Z,21.73
2022-12-18T18:01:23.261Z,22.80
2022-12-18T18:03:53.539Z,22.53
2022-12-18T18:06:20.481Z,23.33
2022-12-18T18:08:46.589Z,24.60
2022-12-18T18:11:36.587Z,24.20
2022-12-18T18:14:10.191Z,22.20
2022-12-18T18:16:50.044Z,23.33
2022-12-18T18:19:21.518Z,21.67
2022-12-18T18:21:51.308Z,23.03
2022-12-18T18:24:25.039Z,23.50
2022-12-18T18:26:51.678Z,22.77
2022-12-18T18:29:26.692Z,23.23
2022-12-18T18:31:53.510Z,22.13
2022-12-18T18:34:29.833Z,23.07
2022-12-18T18:36:56.238Z,22.80
2022-12-18T18:39:22.815Z,21.73
2022-12-18T18:41:49.156Z,20.87
2022-12-18T18:44:20.554Z,21.87
2022-12-18T18:46:52.479Z,22.90
2022-12-18T18:49:20.996Z,22.77
2022-12-18T18:51:50.299Z,23.20
2022-12-18T18:54:16.435Z,22.80
2022-12-18T18:57:18.683Z,22.53
2022-12-18T18:59:31.568Z,22.47
2022-12-18T19:01:59.877Z,23.90
2022-12-18T19:04:31.070Z,22.77
2022-12-18T19:06:57.149Z,21.67
2022-12-18T19:09:23.353Z,22.97
2022-12-18T19:12:08.371Z,23.47
2022-12-18T19:14:34.485Z,24.63
2022-12-18T19:17:00.825Z,26.53
2022-12-18T19:19:27.655Z,23.43
2022-12-18T19:21:53.766Z,22.47
2022-12-18T19:24:22.353Z,22.17
2022-12-18T19:26:48.682Z,21.37
2022-12-18T19:29:15.155Z,22.87
2022-12-18T19:31:41.476Z,20.97
2022-12-18T19:34:08.745Z,21.57
2022-12-18T19:36:38.106Z,22.40
2022-12-18T19:39:17.227Z,20.77
2022-12-18T19:41:44.361Z,21.17
2022-12-18T19:44:14.839Z,21.97
2022-12-18T19:46:42.374Z,29.70
2022-12-18T19:49:10.556Z,25.67
2022-12-18T19:51:37.767Z,23.00
2022-12-18T19:54:04.330Z,20.63
2022-12-18T19:56:34.015Z,23.63
2022-12-18T19:59:01.367Z,20.83
2022-12-18T20:01:29.550Z,33.80
2022-12-18T20:03:57.623Z,28.40
2022-12-18T20:06:45.970Z,28.00
2022-12-18T20:09:12.137Z,24.30
2022-12-18T20:11:41.537Z,25.13
2022-12-18T20:14:10.151Z,23.10
2022-12-18T20:16:36.745Z,22.77
2022-12-18T20:19:04.502Z,21.50
2022-12-18T20:21:31.096Z,22.33
2022-12-18T20:23:59.192Z,21.93
2022-12-18T20:26:26.261Z,23.37
2022-12-18T20:28:54.019Z,29.33
2022-12-18T20:31:20.282Z,24.57
2022-12-18T20:33:47.707Z,21.87
2022-12-18T20:36:22.595Z,22.00
2022-12-18T20:38:53.142Z,24.77
2022-12-18T20:41:23.563Z,22.97
2022-12-18T20:43:50.287Z,30.30
2022-12-18T20:46:17.341Z,23.77
2022-12-18T20:48:44.309Z,23.37
2022-12-18T20:51:14.863Z,29.17
2022-12-18T20:53:42.652Z,24.93
2022-12-18T20:56:21.306Z,32.73
2022-12-18T20:58:49.616Z,22.13
2022-12-18T21:01:19.954Z,23.13
2022-12-18T21:03:47.909Z,22.53
2022-12-18T21:06:17.402Z,22.83
2022-12-18T21:08:44.236Z,20.90
2022-12-18T21:11:37.793Z,20.83
2022-12-18T21:14:23.159Z,20.53
2022-12-18T21:16:51.022Z,21.47
2022-12-18T21:19:24.631Z,21.10
2022-12-18T21:21:53.979Z,21.53
2022-12-18T21:24:20.980Z,23.23
2022-12-18T21:26:48.477Z,20.83
2022-12-18T21:29:22.001Z,22.00
2022-12-18T21:31:49.469Z,20.83
2022-12-18T21:34:19.280Z,21.87
2022-12-18T21:36:45.819Z,18.63
2022-12-18T21:39:14.231Z,21.17
2022-12-18T21:41:59.425Z,20.13
2022-12-18T21:44:25.772Z,19.60
2022-12-18T21:46:58.218Z,20.17
2022-12-18T21:49:27.709Z,21.17
2022-12-18T21:51:56.895Z,21.20
2022-12-18T21:54:24.659Z,21.67
2022-12-18T21:57:05.926Z,22.23
2022-12-18T21:59:40.794Z,20.97
2022-12-18T22:02:15.361Z,18.97
2022-12-18T22:04:43.664Z,20.97
2022-12-18T22:07:10.799Z,18.30
2022-12-18T22:09:38.479Z,20.07
2022-12-18T22:12:05.483Z,21.33
2022-12-18T22:14:31.777Z,21.83
2022-12-18T22:16:58.021Z,22.60
2022-12-18T22:19:24.789Z,20.27
2022-12-18T22:21:51.163Z,22.13
2022-12-18T22:24:23.645Z,22.20
2022-12-18T22:27:01.711Z,21.00
2022-12-18T22:29:47.265Z,19.90
2022-12-18T22:32:16.219Z,21.67
2022-12-18T22:34:43.257Z,21.40
2022-12-18T22:37:11.577Z,21.97
2022-12-18T22:39:37.883Z,21.03
2022-12-18T22:42:04.350Z,22.33
2022-12-18T22:44:30.594Z,19.67
2022-12-18T22:47:05.784Z,20.53
2022-12-18T22:49:34.723Z,21.60
2022-12-18T22:52:05.764Z,21.07
2022-12-18T22:54:31.847Z,20.73
2022-12-18T22:56:57.992Z,21.00
2022-12-18T22:59:24.594Z,21.20
2022-12-18T23:01:57.070Z,20.67
2022-12-18T23:04:27.877Z,19.50
2022-12-18T23:06:57.298Z,21.90
2022-12-18T23:09:23.828Z,22.90
2022-12-18T23:11:50.505Z,22.30
2022-12-18T23:14:16.603Z,20.73
2022-12-18T23:16:42.943Z,18.43
2022-12-18T23:19:11.668Z,20.50
2022-12-18T23:21:38.577Z,22.00
2022-12-18T23:24:05.446Z,20.70
2022-12-18T23:26:31.667Z,21.30
2022-12-18T23:28:57.919Z,21.70
2022-12-18T23:31:29.120Z,22.03
2022-12-18T23:33:57.541Z,20.20
2022-12-18T23:36:24.851Z,21.20
2022-12-18T23:38:54.632Z,21.27
2022-12-18T23:41:24.833Z,21.57
2022-12-18T23:43:52.779Z,20.70
2022-12-18T23:46:23.224Z,21.17
2022-12-18T23:48:50.400Z,22.07
2022-12-18T23:51:22.936Z,19.77
2022-12-18T23:53:50.020Z,21.27
2022-12-18T23:56:16.122Z,19.97
2022-12-18T23:58:43.617Z,21.20
